sensor_id;sensor_type;location;lat;lon;timestamp;P1;durP1;ratioP1;P2;durP2;ratioP2
5955;SDS011;3004;48.080;11.600;2023-04-03T00:02:00;69.40;;;5.77;;
5955;SDS011;3004;48.080;11.600;2023-04-03T00:04:29;69.77;;;6.00;;
5955;SDS011;3004;48.080;11.600;2023-04-03T00:06:57;69.20;;;5.90;;
5955;SDS011;3004;48.080;11.600;2023-04-03T00:09:26;69.07;;;5.63;;
5955;SDS011;3004;48.080;11.600;2023-04-03T00:11:53;69.10;;;5.70;;
5955;SDS011;3004;48.080;11.600;2023-04-03T00:14:21;69.17;;;5.70;;
5955;SDS011;3004;48.080;11.600;2023-04-03T00:16:48;69.67;;;6.37;;
5955;SDS011;3004;48.080;11.600;2023-04-03T00:19:15;70.03;;;6.87;;
5955;SDS011;3004;48.080;11.600;2023-04-03T00:21:44;69.50;;;5.93;;
5955;SDS011;3004;48.080;11.600;2023-04-03T00:24:12;69.50;;;5.83;;
5955;SDS011;3004;48.080;11.600;2023-04-03T00:26:39;69.40;;;5.80;;
5955;SDS011;3004;48.080;11.600;2023-04-03T00:29:06;69.10;;;5.73;;
5955;SDS011;3004;48.080;11.600;2023-04-03T00:31:34;68.50;;;5.73;;
5955;SDS011;3004;48.080;11.600;2023-04-03T00:34:01;69.40;;;5.87;;
5955;SDS011;3004;48.080;11.600;2023-04-03T00:36:31;69.27;;;5.73;;
5955;SDS011;3004;48.080;11.600;2023-04-03T00:39:00;69.27;;;5.80;;
5955;SDS011;3004;48.080;11.600;2023-04-03T00:41:27;69.20;;;5.70;;
5955;SDS011;3004;48.080;11.600;2023-04-03T00:43:55;69.07;;;5.63;;
5955;SDS011;3004;48.080;11.600;2023-04-03T00:46:22;69.43;;;6.10;;
5955;SDS011;3004;48.080;11.600;2023-04-03T00:48:49;69.13;;;5.60;;
5955;SDS011;3004;48.080;11.600;2023-04-03T00:51:18;71.27;;;7.60;;
5955;SDS011;3004;48.080;11.600;2023-04-03T00:53:49;68.90;;;5.77;;
5955;SDS011;3004;48.080;11.600;2023-04-03T00:56:19;69.37;;;5.67;;
5955;SDS011;3004;48.080;11.600;2023-04-03T00:58:49;69.43;;;6.10;;
5955;SDS011;3004;48.080;11.600;2023-04-03T01:01:20;69.37;;;6.10;;
5955;SDS011;3004;48.080;11.600;2023-04-03T01:03:48;69.47;;;5.80;;
5955;SDS011;3004;48.080;11.600;2023-04-03T01:06:17;69.10;;;5.70;;
5955;SDS011;3004;48.080;11.600;2023-04-03T01:08:44;69.00;;;5.80;;
5955;SDS011;3004;48.080;11.600;2023-04-03T01:11:12;69.33;;;5.77;;
5955;SDS011;3004;48.080;11.600;2023-04-03T01:13:41;69.20;;;5.90;;
5955;SDS011;3004;48.080;11.600;2023-04-03T01:16:08;69.20;;;5.77;;
5955;SDS011;3004;48.080;11.600;2023-04-03T01:18:37;69.20;;;5.87;;
5955;SDS011;3004;48.080;11.600;2023-04-03T01:21:26;69.63;;;6.33;;
5955;SDS011;3004;48.080;11.600;2023-04-03T01:23:58;68.90;;;5.97;;
5955;SDS011;3004;48.080;11.600;2023-04-03T01:26:33;69.47;;;5.83;;
5955;SDS011;3004;48.080;11.600;2023-04-03T01:29:02;69.20;;;6.30;;
5955;SDS011;3004;48.080;11.600;2023-04-03T01:31:31;68.70;;;5.90;;
5955;SDS011;3004;48.080;11.600;2023-04-03T01:34:00;69.17;;;5.67;;
5955;SDS011;3004;48.080;11.600;2023-04-03T01:36:29;69.20;;;5.70;;
5955;SDS011;3004;48.080;11.600;2023-04-03T01:38:57;69.10;;;6.00;;
5955;SDS011;3004;48.080;11.600;2023-04-03T01:41:25;69.37;;;5.70;;
5955;SDS011;3004;48.080;11.600;2023-04-03T01:43:53;69.17;;;6.20;;
5955;SDS011;3004;48.080;11.600;2023-04-03T01:46:20;69.10;;;5.70;;
5955;SDS011;3004;48.080;11.600;2023-04-03T01:48:47;69.20;;;6.03;;
5955;SDS011;3004;48.080;11.600;2023-04-03T01:51:16;69.10;;;5.80;;
5955;SDS011;3004;48.080;11.600;2023-04-03T01:53:43;69.27;;;5.80;;
5955;SDS011;3004;48.080;11.600;2023-04-03T01:56:10;69.20;;;5.90;;
5955;SDS011;3004;48.080;11.600;2023-04-03T01:58:37;69.10;;;5.70;;
5955;SDS011;3004;48.080;11.600;2023-04-03T02:01:04;68.80;;;5.70;;
5955;SDS011;3004;48.080;11.600;2023-04-03T02:03:32;68.97;;;5.80;;
5955;SDS011;3004;48.080;11.600;2023-04-03T02:05:59;69.07;;;6.00;;
5955;SDS011;3004;48.080;11.600;2023-04-03T02:08:28;68.97;;;5.50;;
5955;SDS011;3004;48.080;11.600;2023-04-03T02:10:55;68.60;;;5.67;;
5955;SDS011;3004;48.080;11.600;2023-04-03T02:13:22;68.80;;;5.70;;
5955;SDS011;3004;48.080;11.600;2023-04-03T02:15:50;69.17;;;5.80;;
5955;SDS011;3004;48.080;11.600;2023-04-03T02:18:17;69.17;;;5.73;;
5955;SDS011;3004;48.080;11.600;2023-04-03T02:20:45;69.07;;;5.83;;
5955;SDS011;3004;48.080;11.600;2023-04-03T02:23:13;69.37;;;5.87;;
5955;SDS011;3004;48.080;11.600;2023-04-03T02:25:42;68.90;;;5.80;;
5955;SDS011;3004;48.080;11.600;2023-04-03T02:28:09;69.27;;;5.77;;
5955;SDS011;3004;48.080;11.600;2023-04-03T02:30:36;69.37;;;5.83;;
5955;SDS011;3004;48.080;11.600;2023-04-03T02:33:03;68.97;;;5.70;;
5955;SDS011;3004;48.080;11.600;2023-04-03T02:35:31;69.17;;;5.63;;
5955;SDS011;3004;48.080;11.600;2023-04-03T02:37:58;69.07;;;5.60;;
5955;SDS011;3004;48.080;11.600;2023-04-03T02:40:25;70.73;;;6.20;;
5955;SDS011;3004;48.080;11.600;2023-04-03T02:42:54;68.77;;;5.37;;
5955;SDS011;3004;48.080;11.600;2023-04-03T02:45:21;68.50;;;5.13;;
5955;SDS011;3004;48.080;11.600;2023-04-03T02:47:48;68.30;;;5.20;;
5955;SDS011;3004;48.080;11.600;2023-04-03T02:50:16;68.37;;;5.20;;
5955;SDS011;3004;48.080;11.600;2023-04-03T02:52:43;68.57;;;5.20;;
5955;SDS011;3004;48.080;11.600;2023-04-03T02:55:12;68.30;;;5.13;;
5955;SDS011;3004;48.080;11.600;2023-04-03T02:57:40;68.47;;;5.20;;
5955;SDS011;3004;48.080;11.600;2023-04-03T03:00:10;68.50;;;5.30;;
5955;SDS011;3004;48.080;11.600;2023-04-03T03:02:37;68.30;;;5.30;;
5955;SDS011;3004;48.080;11.600;2023-04-03T03:05:05;68.47;;;5.17;;
5955;SDS011;3004;48.080;11.600;2023-04-03T03:07:32;68.33;;;5.20;;
5955;SDS011;3004;48.080;11.600;2023-04-03T03:09:59;68.47;;;5.10;;
5955;SDS011;3004;48.080;11.600;2023-04-03T03:12:27;68.00;;;5.10;;
5955;SDS011;3004;48.080;11.600;2023-04-03T03:14:54;67.90;;;4.80;;
5955;SDS011;3004;48.080;11.600;2023-04-03T03:17:23;68.03;;;4.77;;
5955;SDS011;3004;48.080;11.600;2023-04-03T03:19:50;67.73;;;4.77;;
5955;SDS011;3004;48.080;11.600;2023-04-03T03:22:18;67.83;;;4.80;;
5955;SDS011;3004;48.080;11.600;2023-04-03T03:24:45;67.87;;;4.80;;
5955;SDS011;3004;48.080;11.600;2023-04-03T03:27:12;68.17;;;4.87;;
5955;SDS011;3004;48.080;11.600;2023-04-03T03:29:41;67.93;;;4.90;;
5955;SDS011;3004;48.080;11.600;2023-04-03T03:32:08;67.83;;;4.80;;
5955;SDS011;3004;48.080;11.600;2023-04-03T03:34:37;67.40;;;4.70;;
5955;SDS011;3004;48.080;11.600;2023-04-03T03:37:04;68.07;;;4.73;;
5955;SDS011;3004;48.080;11.600;2023-04-03T03:39:31;67.87;;;4.73;;
5955;SDS011;3004;48.080;11.600;2023-04-03T03:41:59;67.77;;;4.70;;
5955;SDS011;3004;48.080;11.600;2023-04-03T03:44:26;71.90;;;6.33;;
5955;SDS011;3004;48.080;11.600;2023-04-03T03:46:54;67.67;;;4.63;;
5955;SDS011;3004;48.080;11.600;2023-04-03T03:49:21;67.37;;;4.53;;
5955;SDS011;3004;48.080;11.600;2023-04-03T03:51:50;67.47;;;4.53;;
5955;SDS011;3004;48.080;11.600;2023-04-03T03:54:18;67.47;;;4.63;;
5955;SDS011;3004;48.080;11.600;2023-04-03T03:56:45;67.77;;;4.73;;
5955;SDS011;3004;48.080;11.600;2023-04-03T03:59:12;67.87;;;4.67;;
5955;SDS011;3004;48.080;11.600;2023-04-03T04:01:40;68.37;;;5.30;;
5955;SDS011;3004;48.080;11.600;2023-04-03T04:04:07;67.57;;;4.60;;
5955;SDS011;3004;48.080;11.600;2023-04-03T04:09:26;67.27;;;4.40;;
5955;SDS011;3004;48.080;11.600;2023-04-03T04:11:56;67.47;;;4.77;;
5955;SDS011;3004;48.080;11.600;2023-04-03T04:14:23;67.63;;;4.40;;
5955;SDS011;3004;48.080;11.600;2023-04-03T04:16:51;67.47;;;4.70;;
5955;SDS011;3004;48.080;11.600;2023-04-03T04:19:18;67.57;;;4.50;;
5955;SDS011;3004;48.080;11.600;2023-04-03T04:21:45;67.40;;;4.50;;
5955;SDS011;3004;48.080;11.600;2023-04-03T04:27:10;67.27;;;4.33;;
5955;SDS011;3004;48.080;11.600;2023-04-03T04:29:37;67.10;;;4.30;;
5955;SDS011;3004;48.080;11.600;2023-04-03T04:32:05;67.17;;;4.30;;
5955;SDS011;3004;48.080;11.600;2023-04-03T04:34:32;67.17;;;4.40;;
5955;SDS011;3004;48.080;11.600;2023-04-03T04:37:00;67.43;;;4.33;;
5955;SDS011;3004;48.080;11.600;2023-04-03T04:39:27;67.00;;;4.40;;
5955;SDS011;3004;48.080;11.600;2023-04-03T04:41:54;67.37;;;4.30;;
5955;SDS011;3004;48.080;11.600;2023-04-03T04:44:23;68.00;;;5.10;;
5955;SDS011;3004;48.080;11.600;2023-04-03T04:46:50;67.47;;;4.40;;
5955;SDS011;3004;48.080;11.600;2023-04-03T04:49:17;67.27;;;4.40;;
5955;SDS011;3004;48.080;11.600;2023-04-03T04:51:45;67.57;;;4.90;;
5955;SDS011;3004;48.080;11.600;2023-04-03T04:54:12;67.57;;;4.50;;
5955;SDS011;3004;48.080;11.600;2023-04-03T04:56:39;67.27;;;4.47;;
5955;SDS011;3004;48.080;11.600;2023-04-03T04:59:07;67.47;;;4.53;;
5955;SDS011;3004;48.080;11.600;2023-04-03T05:01:35;67.57;;;4.50;;
5955;SDS011;3004;48.080;11.600;2023-04-03T05:04:03;67.60;;;4.53;;
5955;SDS011;3004;48.080;11.600;2023-04-03T05:06:30;67.20;;;4.57;;
5955;SDS011;3004;48.080;11.600;2023-04-03T05:08:58;67.30;;;4.43;;
5955;SDS011;3004;48.080;11.600;2023-04-03T05:11:25;67.00;;;4.23;;
5955;SDS011;3004;48.080;11.600;2023-04-03T05:13:52;67.57;;;4.70;;
5955;SDS011;3004;48.080;11.600;2023-04-03T05:16:20;67.13;;;4.20;;
5955;SDS011;3004;48.080;11.600;2023-04-03T05:21:42;66.97;;;4.50;;
5955;SDS011;3004;48.080;11.600;2023-04-03T05:24:09;66.87;;;4.20;;
5955;SDS011;3004;48.080;11.600;2023-04-03T05:26:36;67.00;;;4.13;;
5955;SDS011;3004;48.080;11.600;2023-04-03T05:29:05;66.43;;;4.17;;
5955;SDS011;3004;48.080;11.600;2023-04-03T05:31:33;66.87;;;4.20;;
5955;SDS011;3004;48.080;11.600;2023-04-03T05:34:01;66.80;;;4.20;;
5955;SDS011;3004;48.080;11.600;2023-04-03T05:36:28;66.87;;;4.10;;
5955;SDS011;3004;48.080;11.600;2023-04-03T05:38:57;66.80;;;4.20;;
5955;SDS011;3004;48.080;11.600;2023-04-03T05:41:26;66.70;;;4.47;;
5955;SDS011;3004;48.080;11.600;2023-04-03T05:43:53;66.83;;;4.10;;
5955;SDS011;3004;48.080;11.600;2023-04-03T05:46:21;67.00;;;4.27;;
5955;SDS011;3004;48.080;11.600;2023-04-03T05:48:50;67.27;;;4.30;;
5955;SDS011;3004;48.080;11.600;2023-04-03T05:51:18;66.60;;;4.30;;
5955;SDS011;3004;48.080;11.600;2023-04-03T05:53:47;67.20;;;4.33;;
5955;SDS011;3004;48.080;11.600;2023-04-03T05:56:20;67.27;;;4.30;;
5955;SDS011;3004;48.080;11.600;2023-04-03T05:58:47;67.00;;;4.33;;
5955;SDS011;3004;48.080;11.600;2023-04-03T06:01:14;67.50;;;4.33;;
5955;SDS011;3004;48.080;11.600;2023-04-03T06:03:44;67.47;;;4.50;;
5955;SDS011;3004;48.080;11.600;2023-04-03T06:06:12;66.97;;;4.27;;
5955;SDS011;3004;48.080;11.600;2023-04-03T06:08:40;67.20;;;4.37;;
5955;SDS011;3004;48.080;11.600;2023-04-03T06:11:08;66.80;;;4.30;;
5955;SDS011;3004;48.080;11.600;2023-04-03T06:13:39;66.63;;;4.03;;
5955;SDS011;3004;48.080;11.600;2023-04-03T06:16:07;66.40;;;3.90;;
5955;SDS011;3004;48.080;11.600;2023-04-03T06:18:35;66.67;;;3.93;;
5955;SDS011;3004;48.080;11.600;2023-04-03T06:21:02;66.77;;;4.20;;
5955;SDS011;3004;48.080;11.600;2023-04-03T06:23:30;66.97;;;4.20;;
5955;SDS011;3004;48.080;11.600;2023-04-03T06:25:57;66.87;;;4.20;;
5955;SDS011;3004;48.080;11.600;2023-04-03T06:28:25;66.37;;;4.00;;
5955;SDS011;3004;48.080;11.600;2023-04-03T06:30:55;66.50;;;4.00;;
5955;SDS011;3004;48.080;11.600;2023-04-03T06:33:24;66.63;;;4.10;;
5955;SDS011;3004;48.080;11.600;2023-04-03T06:36:03;67.20;;;4.30;;
5955;SDS011;3004;48.080;11.600;2023-04-03T06:38:31;66.73;;;4.00;;
5955;SDS011;3004;48.080;11.600;2023-04-03T06:41:03;66.80;;;4.10;;
5955;SDS011;3004;48.080;11.600;2023-04-03T06:43:32;66.57;;;3.80;;
5955;SDS011;3004;48.080;11.600;2023-04-03T06:46:01;66.70;;;3.90;;
5955;SDS011;3004;48.080;11.600;2023-04-03T06:48:29;66.57;;;4.00;;
5955;SDS011;3004;48.080;11.600;2023-04-03T06:51:04;66.70;;;4.20;;
5955;SDS011;3004;48.080;11.600;2023-04-03T06:53:41;66.77;;;4.00;;
5955;SDS011;3004;48.080;11.600;2023-04-03T06:56:11;67.80;;;4.73;;
5955;SDS011;3004;48.080;11.600;2023-04-03T06:58:41;66.40;;;3.83;;
5955;SDS011;3004;48.080;11.600;2023-04-03T07:01:14;66.43;;;3.60;;
5955;SDS011;3004;48.080;11.600;2023-04-03T07:03:46;66.07;;;3.80;;
5955;SDS011;3004;48.080;11.600;2023-04-03T07:06:14;66.20;;;3.60;;
5955;SDS011;3004;48.080;11.600;2023-04-03T07:08:42;66.00;;;3.57;;
5955;SDS011;3004;48.080;11.600;2023-04-03T07:11:23;66.07;;;3.40;;
5955;SDS011;3004;48.080;11.600;2023-04-03T07:13:53;66.13;;;3.60;;
5955;SDS011;3004;48.080;11.600;2023-04-03T07:16:56;66.03;;;3.33;;
5955;SDS011;3004;48.080;11.600;2023-04-03T07:19:25;65.70;;;3.40;;
5955;SDS011;3004;48.080;11.600;2023-04-03T07:22:04;66.17;;;3.37;;
5955;SDS011;3004;48.080;11.600;2023-04-03T07:24:31;66.00;;;3.30;;
5955;SDS011;3004;48.080;11.600;2023-04-03T07:26:59;65.77;;;3.30;;
5955;SDS011;3004;48.080;11.600;2023-04-03T07:29:26;66.00;;;3.30;;
5955;SDS011;3004;48.080;11.600;2023-04-03T07:31:56;65.87;;;3.30;;
5955;SDS011;3004;48.080;11.600;2023-04-03T07:37:08;66.17;;;3.37;;
5955;SDS011;3004;48.080;11.600;2023-04-03T07:39:37;66.13;;;3.20;;
5955;SDS011;3004;48.080;11.600;2023-04-03T07:42:05;65.63;;;3.17;;
5955;SDS011;3004;48.080;11.600;2023-04-03T07:44:38;65.53;;;3.00;;
5955;SDS011;3004;48.080;11.600;2023-04-03T07:47:11;65.37;;;2.97;;
5955;SDS011;3004;48.080;11.600;2023-04-03T07:49:39;65.37;;;2.90;;
5955;SDS011;3004;48.080;11.600;2023-04-03T07:52:08;65.43;;;2.90;;
5955;SDS011;3004;48.080;11.600;2023-04-03T07:54:36;65.27;;;2.80;;
5955;SDS011;3004;48.080;11.600;2023-04-03T07:57:03;65.53;;;2.90;;
5955;SDS011;3004;48.080;11.600;2023-04-03T07:59:31;65.27;;;3.00;;
5955;SDS011;3004;48.080;11.600;2023-04-03T08:02:00;65.60;;;2.90;;
5955;SDS011;3004;48.080;11.600;2023-04-03T08:04:31;65.37;;;2.90;;
5955;SDS011;3004;48.080;11.600;2023-04-03T08:06:58;65.30;;;3.03;;
5955;SDS011;3004;48.080;11.600;2023-04-03T08:09:27;65.17;;;2.80;;
5955;SDS011;3004;48.080;11.600;2023-04-03T08:12:08;65.13;;;2.80;;
5955;SDS011;3004;48.080;11.600;2023-04-03T08:14:36;65.13;;;2.70;;
5955;SDS011;3004;48.080;11.600;2023-04-03T08:17:04;65.37;;;2.83;;
5955;SDS011;3004;48.080;11.600;2023-04-03T08:19:35;65.33;;;2.90;;
5955;SDS011;3004;48.080;11.600;2023-04-03T08:22:03;65.07;;;2.80;;
5955;SDS011;3004;48.080;11.600;2023-04-03T08:24:30;65.20;;;2.90;;
5955;SDS011;3004;48.080;11.600;2023-04-03T08:27:09;64.60;;;2.80;;
5955;SDS011;3004;48.080;11.600;2023-04-03T08:29:36;65.27;;;3.00;;
5955;SDS011;3004;48.080;11.600;2023-04-03T08:32:04;65.37;;;3.10;;
5955;SDS011;3004;48.080;11.600;2023-04-03T08:34:31;65.10;;;2.80;;
5955;SDS011;3004;48.080;11.600;2023-04-03T08:37:01;65.37;;;2.80;;
5955;SDS011;3004;48.080;11.600;2023-04-03T08:39:28;70.87;;;5.90;;
5955;SDS011;3004;48.080;11.600;2023-04-03T08:41:57;65.27;;;2.90;;
5955;SDS011;3004;48.080;11.600;2023-04-03T08:44:28;65.30;;;2.73;;
5955;SDS011;3004;48.080;11.600;2023-04-03T08:47:04;65.00;;;2.70;;
5955;SDS011;3004;48.080;11.600;2023-04-03T08:49:39;64.93;;;2.63;;
5955;SDS011;3004;48.080;11.600;2023-04-03T08:52:14;65.03;;;2.50;;
5955;SDS011;3004;48.080;11.600;2023-04-03T08:54:48;65.17;;;2.70;;
5955;SDS011;3004;48.080;11.600;2023-04-03T08:57:16;65.27;;;2.60;;
5955;SDS011;3004;48.080;11.600;2023-04-03T08:59:44;65.00;;;3.20;;
5955;SDS011;3004;48.080;11.600;2023-04-03T09:02:17;65.10;;;2.80;;
5955;SDS011;3004;48.080;11.600;2023-04-03T09:04:51;65.07;;;2.60;;
5955;SDS011;3004;48.080;11.600;2023-04-03T09:07:29;67.17;;;3.33;;
5955;SDS011;3004;48.080;11.600;2023-04-03T09:10:03;65.17;;;2.60;;
5955;SDS011;3004;48.080;11.600;2023-04-03T09:12:32;65.03;;;2.80;;
5955;SDS011;3004;48.080;11.600;2023-04-03T09:15:06;64.77;;;2.60;;
5955;SDS011;3004;48.080;11.600;2023-04-03T09:17:41;65.27;;;2.73;;
5955;SDS011;3004;48.080;11.600;2023-04-03T09:20:21;64.67;;;2.50;;
5955;SDS011;3004;48.080;11.600;2023-04-03T09:25:38;64.87;;;2.50;;
5955;SDS011;3004;48.080;11.600;2023-04-03T09:28:12;65.40;;;3.10;;
5955;SDS011;3004;48.080;11.600;2023-04-03T09:30:39;64.57;;;2.50;;
5955;SDS011;3004;48.080;11.600;2023-04-03T09:33:10;64.97;;;2.50;;
5955;SDS011;3004;48.080;11.600;2023-04-03T09:35:38;64.53;;;2.50;;
5955;SDS011;3004;48.080;11.600;2023-04-03T09:38:20;64.77;;;2.37;;
5955;SDS011;3004;48.080;11.600;2023-04-03T09:41:13;64.83;;;2.30;;
5955;SDS011;3004;48.080;11.600;2023-04-03T09:43:51;80.30;;;3.90;;
5955;SDS011;3004;48.080;11.600;2023-04-03T09:46:33;64.87;;;2.30;;
5955;SDS011;3004;48.080;11.600;2023-04-03T09:49:03;64.70;;;2.10;;
5955;SDS011;3004;48.080;11.600;2023-04-03T09:51:44;65.10;;;2.10;;
5955;SDS011;3004;48.080;11.600;2023-04-03T09:54:26;64.77;;;2.10;;
5955;SDS011;3004;48.080;11.600;2023-04-03T09:59:38;64.67;;;2.50;;
5955;SDS011;3004;48.080;11.600;2023-04-03T10:02:23;64.77;;;2.20;;
5955;SDS011;3004;48.080;11.600;2023-04-03T10:04:56;64.40;;;2.10;;
5955;SDS011;3004;48.080;11.600;2023-04-03T10:07:27;64.83;;;2.10;;
5955;SDS011;3004;48.080;11.600;2023-04-03T10:09:55;64.77;;;2.10;;
5955;SDS011;3004;48.080;11.600;2023-04-03T10:12:29;64.67;;;1.90;;
5955;SDS011;3004;48.080;11.600;2023-04-03T10:15:00;64.90;;;2.00;;
5955;SDS011;3004;48.080;11.600;2023-04-03T10:17:31;64.67;;;2.00;;
5955;SDS011;3004;48.080;11.600;2023-04-03T10:20:00;64.83;;;2.10;;
5955;SDS011;3004;48.080;11.600;2023-04-03T10:22:36;64.70;;;2.03;;
5955;SDS011;3004;48.080;11.600;2023-04-03T10:25:11;64.63;;;1.80;;
5955;SDS011;3004;48.080;11.600;2023-04-03T10:27:42;64.77;;;2.00;;
5955;SDS011;3004;48.080;11.600;2023-04-03T10:33:01;64.77;;;1.93;;
5955;SDS011;3004;48.080;11.600;2023-04-03T10:35:35;64.50;;;2.00;;
5955;SDS011;3004;48.080;11.600;2023-04-03T10:38:12;64.60;;;2.60;;
5955;SDS011;3004;48.080;11.600;2023-04-03T10:40:57;64.67;;;2.10;;
5955;SDS011;3004;48.080;11.600;2023-04-03T10:43:28;65.03;;;2.23;;
5955;SDS011;3004;48.080;11.600;2023-04-03T10:46:00;64.97;;;2.20;;
5955;SDS011;3004;48.080;11.600;2023-04-03T10:48:39;64.80;;;2.17;;
5955;SDS011;3004;48.080;11.600;2023-04-03T10:51:16;64.60;;;2.00;;
5955;SDS011;3004;48.080;11.600;2023-04-03T10:53:52;64.77;;;2.20;;
5955;SDS011;3004;48.080;11.600;2023-04-03T10:56:25;65.00;;;2.40;;
5955;SDS011;3004;48.080;11.600;2023-04-03T10:58:57;64.90;;;2.40;;
5955;SDS011;3004;48.080;11.600;2023-04-03T11:01:30;64.87;;;2.50;;
5955;SDS011;3004;48.080;11.600;2023-04-03T11:04:00;65.23;;;2.60;;
5955;SDS011;3004;48.080;11.600;2023-04-03T11:06:31;65.60;;;3.20;;
5955;SDS011;3004;48.080;11.600;2023-04-03T11:09:03;66.30;;;3.27;;
5955;SDS011;3004;48.080;11.600;2023-04-03T11:11:33;65.17;;;2.90;;
5955;SDS011;3004;48.080;11.600;2023-04-03T11:14:02;65.10;;;2.67;;
5955;SDS011;3004;48.080;11.600;2023-04-03T11:16:31;65.67;;;3.27;;
5955;SDS011;3004;48.080;11.600;2023-04-03T11:19:03;65.40;;;2.80;;
5955;SDS011;3004;48.080;11.600;2023-04-03T11:21:33;65.67;;;2.80;;
5955;SDS011;3004;48.080;11.600;2023-04-03T11:24:02;65.27;;;2.80;;
5955;SDS011;3004;48.080;11.600;2023-04-03T11:26:35;65.10;;;2.70;;
5955;SDS011;3004;48.080;11.600;2023-04-03T11:29:04;65.23;;;2.90;;
5955;SDS011;3004;48.080;11.600;2023-04-03T11:31:40;65.20;;;3.20;;
5955;SDS011;3004;48.080;11.600;2023-04-03T11:34:15;64.40;;;2.50;;
5955;SDS011;3004;48.080;11.600;2023-04-03T11:36:46;64.93;;;2.43;;
5955;SDS011;3004;48.080;11.600;2023-04-03T11:39:18;64.67;;;2.40;;
5955;SDS011;3004;48.080;11.600;2023-04-03T11:41:49;64.77;;;2.47;;
5955;SDS011;3004;48.080;11.600;2023-04-03T11:44:28;65.60;;;3.27;;
5955;SDS011;3004;48.080;11.600;2023-04-03T11:46:57;64.83;;;1.87;;
5955;SDS011;3004;48.080;11.600;2023-04-03T11:58:18;64.77;;;1.60;;
5955;SDS011;3004;48.080;11.600;2023-04-03T12:06:49;66.57;;;3.17;;
5955;SDS011;3004;48.080;11.600;2023-04-03T12:09:25;66.80;;;2.70;;
5955;SDS011;3004;48.080;11.600;2023-04-03T12:11:57;64.50;;;1.50;;
5955;SDS011;3004;48.080;11.600;2023-04-03T12:14:26;64.80;;;1.40;;
5955;SDS011;3004;48.080;11.600;2023-04-03T12:16:56;65.17;;;1.50;;
5955;SDS011;3004;48.080;11.600;2023-04-03T12:19:37;64.90;;;1.30;;
5955;SDS011;3004;48.080;11.600;2023-04-03T12:22:12;65.27;;;1.50;;
5955;SDS011;3004;48.080;11.600;2023-04-03T12:24:39;64.93;;;1.30;;
5955;SDS011;3004;48.080;11.600;2023-04-03T12:27:25;65.27;;;1.47;;
5955;SDS011;3004;48.080;11.600;2023-04-03T12:30:00;65.27;;;1.30;;
5955;SDS011;3004;48.080;11.600;2023-04-03T12:32:44;65.13;;;1.23;;
5955;SDS011;3004;48.080;11.600;2023-04-03T12:35:43;65.37;;;1.20;;
5955;SDS011;3004;48.080;11.600;2023-04-03T12:38:22;64.93;;;1.30;;
5955;SDS011;3004;48.080;11.600;2023-04-03T12:41:17;65.20;;;1.30;;
5955;SDS011;3004;48.080;11.600;2023-04-03T12:43:50;65.07;;;1.53;;
5955;SDS011;3004;48.080;11.600;2023-04-03T12:46:28;65.37;;;1.20;;
5955;SDS011;3004;48.080;11.600;2023-04-03T12:49:12;65.17;;;1.30;;
5955;SDS011;3004;48.080;11.600;2023-04-03T12:51:42;65.43;;;1.30;;
5955;SDS011;3004;48.080;11.600;2023-04-03T12:54:15;65.37;;;1.20;;
5955;SDS011;3004;48.080;11.600;2023-04-03T12:56:43;65.17;;;1.20;;
5955;SDS011;3004;48.080;11.600;2023-04-03T12:59:14;65.43;;;1.37;;
5955;SDS011;3004;48.080;11.600;2023-04-03T13:01:52;65.30;;;1.20;;
5955;SDS011;3004;48.080;11.600;2023-04-03T13:04:20;68.77;;;2.53;;
5955;SDS011;3004;48.080;11.600;2023-04-03T13:06:48;65.40;;;1.20;;
5955;SDS011;3004;48.080;11.600;2023-04-03T13:09:30;65.60;;;1.23;;
5955;SDS011;3004;48.080;11.600;2023-04-03T13:11:58;65.77;;;1.20;;
5955;SDS011;3004;48.080;11.600;2023-04-03T13:14:27;65.83;;;1.40;;
5955;SDS011;3004;48.080;11.600;2023-04-03T13:16:55;65.87;;;1.20;;
5955;SDS011;3004;48.080;11.600;2023-04-03T13:19:24;65.97;;;1.30;;
5955;SDS011;3004;48.080;11.600;2023-04-03T13:21:56;65.73;;;1.20;;
5955;SDS011;3004;48.080;11.600;2023-04-03T13:24:27;65.93;;;1.30;;
5955;SDS011;3004;48.080;11.600;2023-04-03T13:26:55;65.77;;;1.50;;
5955;SDS011;3004;48.080;11.600;2023-04-03T13:29:24;65.57;;;1.30;;
5955;SDS011;3004;48.080;11.600;2023-04-03T13:31:57;65.83;;;1.30;;
5955;SDS011;3004;48.080;11.600;2023-04-03T13:34:26;65.77;;;1.17;;
5955;SDS011;3004;48.080;11.600;2023-04-03T13:36:55;65.67;;;1.20;;
5955;SDS011;3004;48.080;11.600;2023-04-03T13:39:24;66.00;;;1.20;;
5955;SDS011;3004;48.080;11.600;2023-04-03T13:41:54;65.93;;;1.20;;
5955;SDS011;3004;48.080;11.600;2023-04-03T13:44:29;66.13;;;1.20;;
5955;SDS011;3004;48.080;11.600;2023-04-03T13:46:57;65.77;;;1.30;;
5955;SDS011;3004;48.080;11.600;2023-04-03T13:49:29;65.43;;;1.10;;
5955;SDS011;3004;48.080;11.600;2023-04-03T13:51:56;65.67;;;1.20;;
5955;SDS011;3004;48.080;11.600;2023-04-03T13:54:24;65.80;;;1.20;;
5955;SDS011;3004;48.080;11.600;2023-04-03T13:56:54;65.87;;;1.23;;
5955;SDS011;3004;48.080;11.600;2023-04-03T13:59:23;66.80;;;2.10;;
5955;SDS011;3004;48.080;11.600;2023-04-03T14:02:09;66.23;;;1.20;;
5955;SDS011;3004;48.080;11.600;2023-04-03T14:04:46;65.80;;;1.20;;
5955;SDS011;3004;48.080;11.600;2023-04-03T14:07:14;66.07;;;1.70;;
5955;SDS011;3004;48.080;11.600;2023-04-03T14:09:52;65.90;;;1.20;;
5955;SDS011;3004;48.080;11.600;2023-04-03T14:12:24;65.80;;;1.30;;
5955;SDS011;3004;48.080;11.600;2023-04-03T14:14:52;65.83;;;1.30;;
5955;SDS011;3004;48.080;11.600;2023-04-03T14:17:21;66.07;;;1.40;;
5955;SDS011;3004;48.080;11.600;2023-04-03T14:19:50;67.67;;;2.07;;
5955;SDS011;3004;48.080;11.600;2023-04-03T14:22:18;65.70;;;1.20;;
5955;SDS011;3004;48.080;11.600;2023-04-03T14:24:46;65.97;;;1.20;;
5955;SDS011;3004;48.080;11.600;2023-04-03T14:27:15;65.87;;;1.20;;
5955;SDS011;3004;48.080;11.600;2023-04-03T14:29:45;66.43;;;2.03;;
5955;SDS011;3004;48.080;11.600;2023-04-03T14:32:13;66.73;;;1.97;;
5955;SDS011;3004;48.080;11.600;2023-04-03T14:34:41;66.03;;;1.30;;
5955;SDS011;3004;48.080;11.600;2023-04-03T14:37:09;65.93;;;1.20;;
5955;SDS011;3004;48.080;11.600;2023-04-03T14:39:40;65.90;;;1.20;;
5955;SDS011;3004;48.080;11.600;2023-04-03T14:42:12;65.83;;;1.50;;
5955;SDS011;3004;48.080;11.600;2023-04-03T14:44:47;65.60;;;1.20;;
5955;SDS011;3004;48.080;11.600;2023-04-03T14:47:16;65.80;;;1.30;;
5955;SDS011;3004;48.080;11.600;2023-04-03T14:49:43;65.87;;;1.23;;
5955;SDS011;3004;48.080;11.600;2023-04-03T14:52:16;65.93;;;1.20;;
5955;SDS011;3004;48.080;11.600;2023-04-03T14:54:44;65.70;;;1.30;;
5955;SDS011;3004;48.080;11.600;2023-04-03T14:57:24;65.87;;;1.20;;
5955;SDS011;3004;48.080;11.600;2023-04-03T14:59:54;65.87;;;1.10;;
5955;SDS011;3004;48.080;11.600;2023-04-03T15:02:25;66.07;;;1.20;;
5955;SDS011;3004;48.080;11.600;2023-04-03T15:05:00;65.83;;;1.13;;
5955;SDS011;3004;48.080;11.600;2023-04-03T15:07:29;65.80;;;1.30;;
5955;SDS011;3004;48.080;11.600;2023-04-03T15:09:57;65.87;;;1.20;;
5955;SDS011;3004;48.080;11.600;2023-04-03T15:12:26;66.17;;;1.20;;
5955;SDS011;3004;48.080;11.600;2023-04-03T15:14:55;65.97;;;1.30;;
5955;SDS011;3004;48.080;11.600;2023-04-03T15:17:23;65.90;;;1.27;;
5955;SDS011;3004;48.080;11.600;2023-04-03T15:19:50;65.77;;;1.20;;
5955;SDS011;3004;48.080;11.600;2023-04-03T15:22:20;65.77;;;1.30;;
5955;SDS011;3004;48.080;11.600;2023-04-03T15:24:48;66.17;;;1.67;;
5955;SDS011;3004;48.080;11.600;2023-04-03T15:27:19;65.97;;;1.20;;
5955;SDS011;3004;48.080;11.600;2023-04-03T15:29:47;66.13;;;1.30;;
5955;SDS011;3004;48.080;11.600;2023-04-03T15:32:16;65.77;;;1.20;;
5955;SDS011;3004;48.080;11.600;2023-04-03T15:34:43;66.00;;;1.20;;
5955;SDS011;3004;48.080;11.600;2023-04-03T15:37:11;65.70;;;1.30;;
5955;SDS011;3004;48.080;11.600;2023-04-03T15:39:41;65.87;;;1.20;;
5955;SDS011;3004;48.080;11.600;2023-04-03T15:42:09;65.77;;;1.30;;